Time;durP1;ratioP1;P1;durP2;ratioP2;P2;SDS_P1;SDS_P2;PMS_P1;PMS_P2;Temp;Humidity;BMP_temperature;BMP_pressure;BME280_temperature;BME280_humidity;BME280_pressure;Samples;Min_cycle;Max_cycle;Signal;HPM_P1;HPM_P2
2021/03/19 05:11:06;;;;;;;1.10;1.10;;;3.70;99.90;;;;;;5633320;23;20232;-78
2021/03/19 05:13:33;;;;;;;1.30;1.30;;;3.70;99.90;;;;;;4958950;28;20212;-78
2021/03/19 05:16:00;;;;;;;1.10;1.10;;;3.50;99.90;;;;;;4958583;28;20569;-78
2021/03/19 05:18:28;;;;;;;1.20;1.20;;;3.60;99.90;;;;;;4958798;28;20215;-78
2021/03/19 05:20:56;;;;;;;1.30;1.30;;;3.50;99.90;;;;;;4952875;28;20273;-78
2021/03/19 05:23:30;;;;;;;1.10;1.10;;;3.50;99.90;;;;;;4940183;29;20212;-78
2021/03/19 05:25:57;;;;;;;1.30;1.30;;;3.50;99.90;;;;;;4939421;29;20209;-78
2021/03/19 05:28:25;;;;;;;1.10;1.10;;;3.50;99.90;;;;;;4937263;29;20261;-78
2021/03/19 05:30:54;;;;;;;1.30;1.30;;;3.50;99.90;;;;;;4942854;28;20309;-78
2021/03/19 05:33:22;;;;;;;1.10;1.10;;;3.50;99.90;;;;;;4938022;29;20246;-77
2021/03/19 05:35:50;;;;;;;1.13;1.13;;;3.60;99.90;;;;;;4937883;29;20567;-78
2021/03/19 05:38:17;;;;;;;1.20;1.20;;;3.60;99.90;;;;;;4938087;29;20209;-77
2021/03/19 05:40:46;;;;;;;1.20;1.20;;;3.60;99.90;;;;;;4938341;29;20222;-78
2021/03/19 05:43:30;;;;;;;1.30;1.30;;;3.70;99.90;;;;;;4938054;29;20213;-78
2021/03/19 05:46:00;;;;;;;1.10;1.10;;;3.60;99.90;;;;;;4937987;29;20210;-77
2021/03/19 05:48:38;;;;;;;1.10;1.10;;;3.70;99.90;;;;;;4935921;29;20210;-77
2021/03/19 05:51:05;;;;;;;1.10;1.10;;;3.90;99.90;;;;;;4938023;29;20661;-79
2021/03/19 05:53:42;;;;;;;1.13;1.13;;;3.90;99.90;;;;;;4941327;29;20210;-79
2021/03/19 05:56:13;;;;;;;1.30;1.30;;;4.00;99.90;;;;;;4941590;29;20210;-81
2021/03/19 05:58:42;;;;;;;1.27;1.27;;;3.90;99.90;;;;;;4941282;29;20213;-80
2021/03/19 06:01:09;;;;;;;1.30;1.30;;;3.70;99.90;;;;;;4941414;29;20289;-80
2021/03/19 06:03:36;;;;;;;1.30;1.30;;;3.70;99.90;;;;;;4940915;29;20290;-78
2021/03/19 06:06:05;;;;;;;1.10;1.10;;;3.70;99.90;;;;;;4938992;29;20210;-78
2021/03/19 06:08:35;;;;;;;1.50;1.50;;;3.60;99.90;;;;;;4952640;29;20256;-78
2021/03/19 06:11:14;;;;;;;1.30;1.30;;;3.60;99.90;;;;;;4938817;29;20324;-78
2021/03/19 06:13:52;;;;;;;1.17;1.17;;;3.50;99.90;;;;;;4938881;29;20618;-79
2021/03/19 06:16:47;;;;;;;1.20;1.20;;;3.60;99.90;;;;;;4938944;29;20570;-77
2021/03/19 06:19:36;;;;;;;1.10;1.10;;;3.40;99.90;;;;;;4915119;29;20285;-78
2021/03/19 06:22:17;;;;;;;1.17;1.17;;;3.50;99.90;;;;;;4937514;29;20241;-77
2021/03/19 06:25:15;;;;;;;1.30;1.30;;;3.50;99.90;;;;;;4939010;29;20209;-77
2021/03/19 06:27:49;;;;;;;1.30;1.30;;;3.70;99.90;;;;;;4941469;29;20265;-77
2021/03/19 06:30:25;;;;;;;1.10;1.10;;;3.60;99.90;;;;;;4942692;29;20226;-79
2021/03/19 06:33:23;;;;;;;1.10;1.10;;;3.60;99.90;;;;;;4937529;29;20627;-77
2021/03/19 06:36:13;;;;;;;1.20;1.20;;;3.90;99.90;;;;;;4938414;29;20622;-78
2021/03/19 06:38:47;;;;;;;1.00;1.00;;;4.10;99.90;;;;;;4937011;29;20206;-82
2021/03/19 06:41:27;;;;;;;1.10;1.10;;;4.00;99.90;;;;;;4934492;29;20233;-77
2021/03/19 06:44:16;;;;;;;1.30;1.30;;;4.20;99.90;;;;;;4933893;29;20210;-75
2021/03/19 06:46:46;;;;;;;1.20;1.20;;;4.10;99.90;;;;;;4933798;29;20214;-75
2021/03/19 06:49:15;;;;;;;1.40;1.40;;;4.20;99.90;;;;;;4933932;29;20726;-75
2021/03/19 06:51:44;;;;;;;1.20;1.20;;;3.90;99.90;;;;;;4933837;29;20226;-74
2021/03/19 06:54:13;;;;;;;1.10;1.10;;;3.90;99.90;;;;;;4933856;29;20228;-75
2021/03/19 06:56:59;;;;;;;1.20;1.20;;;3.80;99.90;;;;;;4934018;29;20206;-76
2021/03/19 06:59:28;;;;;;;1.20;1.20;;;3.80;99.90;;;;;;4934115;29;20698;-75
2021/03/19 07:01:56;;;;;;;1.20;1.20;;;3.80;99.90;;;;;;4935720;29;20272;-79
2021/03/19 07:04:49;;;;;;;1.10;1.10;;;3.90;99.90;;;;;;4935468;29;20799;-77
2021/03/19 07:08:02;;;;;;;1.23;1.23;;;3.90;99.90;;;;;;4936177;29;20213;-80
2021/03/19 07:10:42;;;;;;;1.20;1.20;;;4.00;99.90;;;;;;4933600;29;20597;-78
2021/03/19 07:13:36;;;;;;;1.30;1.30;;;4.00;99.90;;;;;;4932383;29;20190;-77
2021/03/19 07:16:10;;;;;;;1.10;1.10;;;4.00;99.90;;;;;;4933813;29;20209;-77
2021/03/19 07:19:01;;;;;;;1.30;1.30;;;3.90;99.90;;;;;;4934584;29;20201;-76
2021/03/19 07:21:57;;;;;;;1.30;1.30;;;3.80;99.90;;;;;;4935018;29;20367;-76
2021/03/19 07:24:44;;;;;;;1.20;1.20;;;3.50;99.90;;;;;;4931613;29;20655;-77
2021/03/19 07:27:26;;;;;;;1.33;1.33;;;3.40;99.90;;;;;;4940142;29;20359;-77
2021/03/19 07:30:07;;;;;;;1.40;1.40;;;3.40;99.90;;;;;;4936904;29;20304;-77
2021/03/19 07:33:05;;;;;;;1.20;1.20;;;3.60;99.90;;;;;;4949048;29;20233;-77
2021/03/19 07:35:51;;;;;;;1.37;1.37;;;3.50;99.90;;;;;;4946536;29;20723;-76
2021/03/19 07:38:47;;;;;;;1.20;1.20;;;3.60;99.90;;;;;;4935187;29;20557;-76
2021/03/19 07:41:24;;;;;;;1.50;1.50;;;3.70;99.90;;;;;;4934543;29;20230;-76
2021/03/19 07:44:31;;;;;;;1.30;1.30;;;3.90;99.90;;;;;;4934579;29;20310;-76
2021/03/19 07:47:15;;;;;;;1.20;1.20;;;4.00;99.90;;;;;;4934349;29;20213;-76
2021/03/19 07:50:08;;;;;;;1.20;1.20;;;4.00;99.90;;;;;;4934215;29;20273;-76
2021/03/19 07:53:02;;;;;;;1.20;1.20;;;4.20;99.90;;;;;;4933815;29;20228;-76
2021/03/19 07:55:34;;;;;;;1.57;1.57;;;4.30;99.90;;;;;;4933173;29;20269;-76
2021/03/19 07:58:13;;;;;;;1.27;1.27;;;4.50;99.90;;;;;;4934256;29;20206;-77
2021/03/19 08:00:46;;;;;;;1.10;1.10;;;4.70;99.90;;;;;;4934078;29;20226;-76
2021/03/19 08:03:18;;;;;;;1.30;1.30;;;4.90;99.90;;;;;;4944721;29;20206;-76
2021/03/19 08:05:47;;;;;;;1.10;1.10;;;5.10;99.90;;;;;;4934087;29;20214;-77
2021/03/19 08:08:20;;;;;;;1.30;1.30;;;5.30;99.90;;;;;;4934642;29;20221;-79
2021/03/19 08:11:12;;;;;;;1.20;1.20;;;5.10;99.90;;;;;;4937848;29;20325;-79
2021/03/19 08:13:52;;;;;;;1.20;1.20;;;5.30;99.90;;;;;;4938052;29;20217;-76
2021/03/19 08:16:26;;;;;;;1.30;1.30;;;5.40;99.90;;;;;;4937779;29;20209;-76
2021/03/19 08:19:02;;;;;;;1.30;1.30;;;5.20;99.90;;;;;;4938215;29;20240;-76
2021/03/19 08:21:38;;;;;;;1.20;1.20;;;5.10;99.90;;;;;;4937885;29;20296;-75
2021/03/19 08:24:29;;;;;;;1.30;1.30;;;4.80;99.90;;;;;;4937757;29;20237;-76
2021/03/19 08:27:06;;;;;;;1.30;1.30;;;4.60;99.90;;;;;;4939822;29;20210;-75
2021/03/19 08:29:54;;;;;;;1.57;1.57;;;4.60;99.90;;;;;;4937243;29;20257;-76
2021/03/19 08:32:33;;;;;;;1.30;1.30;;;4.80;99.90;;;;;;4938222;29;20237;-77
2021/03/19 08:35:10;;;;;;;1.30;1.30;;;5.00;99.90;;;;;;4941883;29;20209;-77
2021/03/19 08:37:50;;;;;;;1.30;1.30;;;5.10;99.90;;;;;;4942021;29;20249;-78
2021/03/19 08:40:28;;;;;;;1.30;1.30;;;5.10;99.90;;;;;;4934383;28;20229;-77
2021/03/19 08:42:57;;;;;;;1.33;1.33;;;5.00;99.90;;;;;;4943962;29;20213;-79
2021/03/19 08:45:27;;;;;;;1.10;1.10;;;5.10;99.90;;;;;;4942842;29;20206;-76
2021/03/19 08:47:57;;;;;;;1.37;1.37;;;5.10;99.90;;;;;;4940982;29;20198;-77
2021/03/19 08:50:30;;;;;;;1.20;1.20;;;4.80;99.90;;;;;;4939885;29;20226;-76
2021/03/19 08:53:07;;;;;;;1.20;1.20;;;4.80;99.90;;;;;;4940820;29;20228;-78
2021/03/19 08:55:36;;;;;;;1.30;1.30;;;4.70;99.90;;;;;;4940595;29;20261;-76
2021/03/19 08:58:36;;;;;;;1.50;1.50;;;4.90;99.90;;;;;;4939977;29;20209;-77
2021/03/19 09:01:05;;;;;;;1.20;1.20;;;4.80;99.90;;;;;;4941346;29;20234;-77
2021/03/19 09:03:55;;;;;;;1.07;1.07;;;5.10;99.90;;;;;;4938815;29;20209;-79
2021/03/19 09:06:34;;;;;;;1.20;1.20;;;5.20;99.90;;;;;;4943576;29;20206;-79
2021/03/19 09:09:31;;;;;;;1.20;1.20;;;5.30;99.90;;;;;;4941509;29;20216;-77
2021/03/19 09:12:12;;;;;;;1.20;1.20;;;5.50;99.90;;;;;;4940534;29;20583;-78
2021/03/19 09:14:45;;;;;;;1.03;1.03;;;5.50;99.90;;;;;;4939877;29;20214;-78
2021/03/19 09:17:15;;;;;;;1.30;1.30;;;5.50;99.90;;;;;;4936823;29;20214;-77
2021/03/19 09:19:59;;;;;;;1.10;1.10;;;5.20;99.90;;;;;;4937810;29;20206;-76
2021/03/19 09:22:44;;;;;;;1.10;1.10;;;4.70;99.90;;;;;;4940058;29;20232;-77
2021/03/19 09:25:38;;;;;;;1.40;1.40;;;4.60;99.90;;;;;;4939344;29;20237;-77
2021/03/19 09:28:31;;;;;;;1.30;1.30;;;4.40;99.90;;;;;;4936145;29;20210;-76
2021/03/19 09:31:10;;;;;;;1.20;1.20;;;4.60;99.90;;;;;;4939377;29;20237;-77
2021/03/19 09:34:06;;;;;;;1.30;1.30;;;4.80;99.90;;;;;;4939562;29;20216;-77
2021/03/19 09:36:57;;;;;;;1.23;1.23;;;5.10;99.90;;;;;;4938302;29;20229;-76
2021/03/19 09:39:59;;;;;;;1.20;1.20;;;5.20;99.90;;;;;;4939050;29;20640;-77
2021/03/19 09:42:52;;;;;;;1.30;1.30;;;5.40;99.90;;;;;;4938570;29;20226;-77
2021/03/19 09:45:38;;;;;;;1.30;1.30;;;5.60;99.90;;;;;;4936231;29;20561;-77
2021/03/19 09:48:31;;;;;;;1.20;1.20;;;5.80;99.90;;;;;;4935839;29;20273;-77
2021/03/19 09:51:14;;;;;;;1.10;1.10;;;6.10;99.90;;;;;;4916739;29;20289;-76
2021/03/19 09:53:41;;;;;;;1.10;1.10;;;6.10;99.90;;;;;;4918249;29;20207;-77
2021/03/19 09:56:18;;;;;;;1.10;1.10;;;6.00;99.90;;;;;;4923009;29;20233;-78
2021/03/19 09:58:48;;;;;;;1.20;1.20;;;5.90;99.90;;;;;;4957718;28;20678;-78
2021/03/19 10:01:26;;;;;;;1.10;1.10;;;5.70;99.90;;;;;;4957119;28;20710;-78
2021/03/19 10:03:59;;;;;;;1.30;1.30;;;5.50;99.90;;;;;;4957513;28;20221;-76
2021/03/19 10:06:30;;;;;;;1.40;1.40;;;5.60;99.90;;;;;;4957060;28;20206;-77
2021/03/19 10:09:15;;;;;;;1.30;1.30;;;5.70;99.90;;;;;;4956367;28;20693;-77
2021/03/19 10:12:02;;;;;;;1.30;1.30;;;5.90;99.90;;;;;;4957877;28;20365;-76
2021/03/19 10:14:33;;;;;;;1.20;1.20;;;5.80;99.90;;;;;;4954280;28;20209;-76
2021/03/19 10:17:07;;;;;;;1.23;1.23;;;5.40;99.90;;;;;;4952368;28;20217;-76
2021/03/19 10:19:36;;;;;;;1.27;1.27;;;4.90;99.90;;;;;;4934264;29;20766;-75
2021/03/19 10:22:06;;;;;;;1.30;1.30;;;4.60;99.90;;;;;;4936406;29;20324;-77
2021/03/19 10:24:33;;;;;;;1.30;1.30;;;4.30;99.90;;;;;;4939055;29;20210;-78
2021/03/19 10:27:03;;;;;;;1.20;1.20;;;4.10;99.90;;;;;;4956426;29;20301;-78
2021/03/19 10:29:33;;;;;;;1.37;1.37;;;4.20;99.90;;;;;;4958899;28;20202;-76
2021/03/19 10:32:04;;;;;;;1.10;1.10;;;4.30;99.90;;;;;;4944002;28;20612;-78
2021/03/19 10:34:45;;;;;;;1.30;1.30;;;4.70;99.90;;;;;;4937306;29;20216;-77
2021/03/19 10:37:24;;;;;;;1.33;1.33;;;4.90;99.90;;;;;;4938764;29;20735;-79
2021/03/19 10:39:58;;;;;;;1.30;1.30;;;5.40;99.90;;;;;;4936201;29;20285;-76
2021/03/19 10:42:31;;;;;;;1.23;1.23;;;5.70;99.90;;;;;;4937031;29;20225;-76
2021/03/19 10:45:18;;;;;;;1.20;1.20;;;5.50;99.90;;;;;;4935547;29;20670;-76
2021/03/19 10:47:49;;;;;;;1.27;1.27;;;5.10;99.90;;;;;;4934883;29;20269;-77
2021/03/19 10:50:22;;;;;;;1.30;1.30;;;4.80;99.90;;;;;;4938068;29;20249;-76
2021/03/19 10:52:59;;;;;;;1.33;1.33;;;4.00;99.90;;;;;;4935488;29;20269;-77
2021/03/19 10:55:31;;;;;;;1.20;1.20;;;4.60;99.90;;;;;;4938410;29;20205;-77
2021/03/19 10:58:32;;;;;;;1.30;1.30;;;4.70;99.90;;;;;;4933877;29;20209;-76
2021/03/19 11:00:59;;;;;;;1.30;1.30;;;4.90;99.90;;;;;;4934320;29;20273;-77
2021/03/19 11:03:39;;;;;;;1.40;1.40;;;4.80;99.90;;;;;;4935218;29;20212;-80
2021/03/19 11:06:09;;;;;;;1.20;1.20;;;5.00;99.90;;;;;;4934140;29;20230;-77
2021/03/19 11:08:37;;;;;;;1.40;1.40;;;5.50;99.90;;;;;;4934826;29;20272;-77
2021/03/19 11:11:04;;;;;;;1.30;1.30;;;5.80;99.90;;;;;;4938807;29;20229;-79
2021/03/19 11:13:33;;;;;;;1.20;1.20;;;6.00;99.90;;;;;;4938868;29;20210;-81
2021/03/19 11:16:04;;;;;;;1.23;1.23;;;5.40;99.90;;;;;;4956500;29;20228;-79
2021/03/19 11:18:36;;;;;;;1.33;1.33;;;5.40;99.90;;;;;;4960792;28;20220;-81
2021/03/19 11:21:29;;;;;;;1.30;1.30;;;5.40;99.90;;;;;;4955678;28;20229;-77
2021/03/19 11:24:13;;;;;;;1.40;1.40;;;5.40;99.90;;;;;;4955661;28;20228;-79
2021/03/19 11:26:40;;;;;;;1.20;1.20;;;5.20;99.90;;;;;;4948769;29;20671;-79
2021/03/19 11:29:21;;;;;;;1.30;1.30;;;5.00;99.90;;;;;;4949772;28;20214;-78
2021/03/19 11:32:00;;;;;;;1.20;1.20;;;4.90;99.90;;;;;;4936084;29;20226;-81
2021/03/19 11:34:31;;;;;;;1.23;1.23;;;4.90;99.90;;;;;;4935137;29;20209;-78
2021/03/19 11:37:02;;;;;;;1.10;1.10;;;5.00;99.90;;;;;;4935588;29;20627;-80
2021/03/19 11:39:43;;;;;;;1.33;1.33;;;5.20;99.90;;;;;;4935308;29;20214;-77
2021/03/19 11:42:12;;;;;;;1.30;1.30;;;5.40;99.90;;;;;;4935348;29;20237;-80
2021/03/19 11:44:39;;;;;;;1.30;1.30;;;5.80;99.90;;;;;;4937201;29;20567;-79
2021/03/19 11:47:21;;;;;;;1.20;1.20;;;6.20;99.90;;;;;;4938799;29;20581;-78
2021/03/19 11:49:50;;;;;;;1.20;1.20;;;6.40;99.90;;;;;;4938915;29;20738;-79
2021/03/19 11:52:20;;;;;;;1.20;1.20;;;6.50;99.90;;;;;;4937536;29;20225;-81
2021/03/19 11:54:48;;;;;;;1.17;1.17;;;6.20;99.90;;;;;;4941639;29;20300;-83
2021/03/19 11:57:17;;;;;;;1.30;1.30;;;6.20;99.90;;;;;;4940810;29;20261;-80
2021/03/19 11:59:44;;;;;;;1.20;1.20;;;6.20;99.90;;;;;;4942893;29;20210;-83
2021/03/19 12:02:23;;;;;;;1.17;1.17;;;6.30;99.90;;;;;;4942717;29;20225;-84
2021/03/19 12:04:51;;;;;;;1.30;1.30;;;;;;;;;;4941034;29;20225;-78
2021/03/19 12:07:18;;;;;;;1.20;1.20;;;6.40;99.80;;;;;;4929608;29;20217;-83
2021/03/19 12:09:48;;;;;;;1.20;1.20;;;6.60;99.90;;;;;;4942846;28;20206;-83
2021/03/19 12:12:17;;;;;;;1.20;1.20;;;6.80;99.90;;;;;;4948486;29;20911;-79
2021/03/19 12:14:44;;;;;;;1.10;1.10;;;6.90;99.90;;;;;;4942467;28;20213;-79
2021/03/19 12:17:12;;;;;;;1.10;1.10;;;7.10;99.80;;;;;;4950533;29;20210;-81
2021/03/19 12:19:40;;;;;;;1.20;1.20;;;6.90;98.50;;;;;;4939613;29;20229;-78
2021/03/19 12:22:08;;;;;;;1.20;1.20;;;6.90;99.10;;;;;;4935039;29;20591;-78
2021/03/19 12:24:36;;;;;;;1.20;1.20;;;7.10;98.70;;;;;;4957150;28;20205;-80
2021/03/19 12:27:03;;;;;;;1.20;1.20;;;6.80;99.00;;;;;;4958951;28;20621;-81
2021/03/19 12:29:37;;;;;;;1.30;1.30;;;6.70;98.70;;;;;;4947599;29;20213;-79
2021/03/19 12:32:05;;;;;;;1.03;1.03;;;6.50;98.70;;;;;;4935238;29;20552;-81
2021/03/19 12:34:33;;;;;;;1.10;1.10;;;6.50;97.70;;;;;;4941762;28;20583;-78
2021/03/19 12:37:00;;;;;;;1.10;1.10;;;6.20;97.90;;;;;;4947489;29;20216;-79
2021/03/19 12:39:27;;;;;;;1.10;1.10;;;6.20;98.00;;;;;;4943495;28;20746;-79
2021/03/19 12:41:55;;;;;;;1.20;1.20;;;6.30;97.10;;;;;;4939480;29;20218;-79
2021/03/19 12:44:22;;;;;;;1.10;1.10;;;6.10;97.00;;;;;;4937955;29;20297;-78
2021/03/19 12:46:50;;;;;;;1.27;1.27;;;6.10;97.40;;;;;;4937897;29;20464;-78
2021/03/19 12:49:17;;;;;;;1.20;1.20;;;6.20;96.60;;;;;;4938073;29;20213;-79
2021/03/19 12:51:44;;;;;;;1.20;1.20;;;6.50;97.00;;;;;;4937859;29;20658;-79
2021/03/19 12:54:11;;;;;;;1.20;1.20;;;6.80;97.50;;;;;;4937272;29;20206;-77
2021/03/19 12:56:38;;;;;;;1.17;1.17;;;7.20;95.90;;;;;;4936828;29;20206;-77
2021/03/19 12:59:05;;;;;;;1.17;1.17;;;7.40;96.60;;;;;;4939068;29;20284;-79
2021/03/19 13:01:32;;;;;;;1.17;1.17;;;7.60;94.30;;;;;;4945461;29;20757;-82
2021/03/19 13:04:01;;;;;;;1.00;1.00;;;7.70;93.70;;;;;;4958049;28;20301;-78
2021/03/19 13:06:28;;;;;;;1.10;1.10;;;7.80;93.00;;;;;;4956934;28;20205;-78
2021/03/19 13:08:55;;;;;;;1.00;1.00;;;7.70;93.00;;;;;;4956924;28;20204;-78
2021/03/19 13:11:22;;;;;;;1.00;1.00;;;7.60;92.40;;;;;;4956595;28;20280;-79
2021/03/19 13:13:49;;;;;;;1.00;1.00;;;7.10;92.00;;;;;;4957727;28;20449;-80
2021/03/19 13:16:17;;;;;;;1.27;1.27;;;7.00;92.60;;;;;;4959800;28;20209;-81
2021/03/19 13:18:44;;;;;;;1.17;1.17;;;6.80;94.00;;;;;;4960831;28;20213;-84
2021/03/19 13:21:11;;;;;;;1.10;1.10;;;6.40;94.90;;;;;;4960564;28;20221;-86
2021/03/19 13:23:38;;;;;;;1.00;1.00;;;6.40;95.80;;;;;;4960372;28;20208;-84
2021/03/19 13:26:05;;;;;;;1.27;1.27;;;6.20;94.50;;;;;;4958524;28;20205;-81
2021/03/19 13:28:34;;;;;;;1.10;1.10;;;5.90;95.00;;;;;;4958262;28;20213;-81
2021/03/19 13:31:02;;;;;;;1.10;1.10;;;5.50;98.80;;;;;;4949516;29;20240;-83
2021/03/19 13:33:32;;;;;;;1.20;1.20;;;5.00;99.90;;;;;;4952273;29;20202;-83
2021/03/19 13:36:02;;;;;;;1.40;1.40;;;4.80;99.90;;;;;;4951116;29;20234;-83
2021/03/19 13:38:33;;;;;;;1.33;1.33;;;4.50;99.90;;;;;;4952004;29;20214;-83
2021/03/19 13:41:04;;;;;;;1.20;1.20;;;4.30;99.90;;;;;;4950946;29;20222;-83
2021/03/19 13:43:35;;;;;;;1.10;1.10;;;3.90;99.90;;;;;;4948025;29;20244;-84
2021/03/19 13:46:03;;;;;;;1.13;1.13;;;;;;;;;;4947187;29;20206;-82
2021/03/19 13:48:32;;;;;;;1.37;1.37;;;3.60;99.90;;;;;;4948879;29;20237;-82
2021/03/19 13:51:03;;;;;;;1.20;1.20;;;3.50;99.90;;;;;;4942088;29;20628;-82
2021/03/19 13:53:29;;;;;;;1.30;1.30;;;3.40;99.90;;;;;;4937962;29;20385;-81
2021/03/19 13:55:57;;;;;;;1.37;1.37;;;3.30;99.90;;;;;;4938110;29;20621;-82
2021/03/19 13:58:26;;;;;;;1.30;1.30;;;2.90;99.90;;;;;;4937471;29;20264;-81
2021/03/19 14:00:54;;;;;;;1.50;1.50;;;2.90;99.90;;;;;;4936676;29;20221;-81
2021/03/19 14:03:23;;;;;;;1.30;1.30;;;3.00;99.90;;;;;;4936156;29;20210;-81
2021/03/19 14:05:51;;;;;;;1.20;1.20;;;3.10;99.90;;;;;;4936159;29;20206;-81
2021/03/19 14:08:20;;;;;;;1.20;1.20;;;3.40;99.90;;;;;;4935591;29;20213;-81
2021/03/19 14:10:52;;;;;;;1.30;1.30;;;3.60;99.90;;;;;;4936409;29;20230;-83
2021/03/19 14:13:19;;;;;;;1.27;1.27;;;3.90;99.90;;;;;;4936272;29;20687;-81
2021/03/19 14:15:46;;;;;;;1.30;1.30;;;4.10;99.90;;;;;;4936018;29;20210;-81
2021/03/19 14:18:13;;;;;;;1.27;1.27;;;4.40;99.90;;;;;;4938100;29;20656;-81
2021/03/19 14:20:43;;;;;;;1.50;1.50;;;4.50;99.90;;;;;;4937159;29;20226;-82
2021/03/19 14:23:11;;;;;;;1.40;1.40;;;4.70;99.90;;;;;;4937278;29;20632;-82
2021/03/19 14:25:38;;;;;;;1.20;1.20;;;4.80;99.90;;;;;;4936959;29;20214;-81
2021/03/19 14:28:08;;;;;;;1.20;1.20;;;4.50;99.90;;;;;;4937000;29;20206;-82
2021/03/19 14:30:37;;;;;;;1.40;1.40;;;4.70;99.90;;;;;;4936613;29;20242;-81
2021/03/19 14:33:05;;;;;;;1.20;1.20;;;4.70;99.90;;;;;;4936858;29;20654;-82
2021/03/19 14:35:33;;;;;;;1.30;1.30;;;4.50;99.90;;;;;;4937014;29;20201;-82
2021/03/19 14:38:01;;;;;;;1.30;1.30;;;4.30;99.90;;;;;;4937453;29;20212;-82
2021/03/19 14:40:31;;;;;;;1.33;1.33;;;4.30;99.90;;;;;;4939474;29;20202;-83
2021/03/19 14:42:59;;;;;;;1.20;1.20;;;4.20;99.90;;;;;;4938598;29;20212;-82
2021/03/19 14:45:27;;;;;;;1.30;1.30;;;4.20;99.90;;;;;;4939324;29;20563;-82
2021/03/19 14:47:54;;;;;;;1.20;1.20;;;4.20;99.90;;;;;;4937115;29;20256;-82
2021/03/19 14:50:26;;;;;;;1.40;1.40;;;4.10;99.90;;;;;;4936202;29;20715;-82
2021/03/19 14:52:56;;;;;;;1.20;1.20;;;4.10;99.90;;;;;;4936839;29;20373;-82
2021/03/19 14:55:27;;;;;;;1.47;1.47;;;4.20;99.90;;;;;;4935986;29;20210;-82
2021/03/19 14:57:56;;;;;;;1.40;1.40;;;4.50;99.90;;;;;;4936351;29;20213;-82
2021/03/19 15:00:26;;;;;;;1.30;1.30;;;4.80;99.90;;;;;;4935838;29;20205;-83
2021/03/19 15:02:53;;;;;;;1.30;1.30;;;;;;;;;;4936514;29;20216;-81
2021/03/19 15:05:21;;;;;;;1.30;1.30;;;5.30;99.90;;;;;;4936449;29;20233;-82
2021/03/19 15:07:49;;;;;;;1.30;1.30;;;5.60;99.90;;;;;;4935709;29;20230;-80
2021/03/19 15:10:21;;;;;;;1.30;1.30;;;5.00;99.90;;;;;;4935373;29;20280;-82
2021/03/19 15:12:48;;;;;;;1.20;1.20;;;4.90;99.90;;;;;;4934798;29;20586;-79
2021/03/19 15:15:16;;;;;;;1.40;1.40;;;4.00;99.90;;;;;;4935549;29;20210;-79
2021/03/19 15:17:43;;;;;;;1.20;1.20;;;4.00;99.90;;;;;;4933045;29;20284;-78
2021/03/19 15:20:14;;;;;;;1.30;1.30;;;3.70;99.90;;;;;;4933571;29;20297;-79
2021/03/19 15:22:41;;;;;;;1.10;1.10;;;3.60;99.90;;;;;;4934509;29;20289;-80
2021/03/19 15:25:09;;;;;;;1.23;1.23;;;3.50;99.90;;;;;;4933824;29;20206;-79
2021/03/19 15:27:36;;;;;;;1.10;1.10;;;3.30;99.90;;;;;;4934117;29;20206;-80
2021/03/19 15:30:05;;;;;;;1.20;1.20;;;3.20;99.90;;;;;;4934127;29;20218;-78
2021/03/19 15:32:33;;;;;;;1.30;1.30;;;3.20;99.90;;;;;;4934476;29;20727;-79
2021/03/19 15:35:00;;;;;;;1.40;1.40;;;3.00;99.90;;;;;;4935734;29;20210;-80
2021/03/19 15:37:27;;;;;;;1.20;1.20;;;2.90;99.90;;;;;;4935599;29;20253;-79
2021/03/19 15:39:54;;;;;;;1.30;1.30;;;2.80;99.90;;;;;;4935693;29;20217;-79
2021/03/19 15:42:21;;;;;;;1.20;1.20;;;2.80;99.90;;;;;;4935816;29;20650;-80
2021/03/19 15:44:49;;;;;;;1.20;1.20;;;2.90;99.90;;;;;;4934863;29;20213;-79
2021/03/19 15:47:16;;;;;;;1.40;1.40;;;3.10;99.90;;;;;;4935454;29;20206;-79
2021/03/19 15:49:44;;;;;;;1.10;1.10;;;3.20;99.90;;;;;;4935898;29;20801;-80
2021/03/19 15:52:11;;;;;;;1.20;1.20;;;3.30;99.90;;;;;;4934963;29;20230;-80
2021/03/19 15:54:38;;;;;;;1.20;1.20;;;3.30;99.90;;;;;;4936115;29;20210;-79
2021/03/19 15:57:05;;;;;;;1.40;1.40;;;3.40;99.90;;;;;;4935455;29;20212;-80
2021/03/19 15:59:32;;;;;;;1.23;1.23;;;4.10;99.90;;;;;;4935536;29;20269;-79
2021/03/19 16:02:00;;;;;;;1.20;1.20;;;3.40;99.90;;;;;;4935259;29;20233;-80
2021/03/19 16:04:27;;;;;;;1.30;1.30;;;3.50;99.90;;;;;;4935359;29;20245;-80
2021/03/19 16:06:55;;;;;;;1.20;1.20;;;3.50;99.90;;;;;;4934018;29;20205;-79
2021/03/19 16:09:22;;;;;;;1.40;1.40;;;3.50;99.90;;;;;;4934174;29;20198;-79
2021/03/19 16:11:49;;;;;;;1.30;1.30;;;3.70;99.90;;;;;;4933669;29;20233;-80
2021/03/19 16:14:16;;;;;;;1.20;1.20;;;3.80;99.90;;;;;;4933740;29;20579;-80
2021/03/19 16:16:43;;;;;;;1.30;1.30;;;3.80;99.90;;;;;;4933389;29;20206;-79
2021/03/19 16:19:10;;;;;;;1.30;1.30;;;3.60;99.90;;;;;;4933722;29;20206;-80
2021/03/19 16:21:38;;;;;;;1.27;1.27;;;3.60;99.90;;;;;;4933495;29;20226;-78
2021/03/19 16:24:07;;;;;;;1.40;1.40;;;3.50;99.90;;;;;;4934006;29;20210;-78
2021/03/19 16:26:34;;;;;;;1.40;1.40;;;3.50;99.90;;;;;;4933524;29;20289;-78
2021/03/19 16:29:01;;;;;;;1.27;1.27;;;3.50;99.90;;;;;;4933845;29;20206;-78
2021/03/19 16:31:28;;;;;;;1.20;1.20;;;3.60;99.90;;;;;;4935063;29;20819;-79
2021/03/19 16:33:55;;;;;;;1.40;1.40;;;3.60;99.90;;;;;;4936100;29;20210;-79
2021/03/19 16:36:22;;;;;;;1.30;1.30;;;3.50;99.90;;;;;;4932194;29;20218;-78
2021/03/19 16:38:58;;;;;;;1.37;1.37;;;3.60;99.90;;;;;;4921953;29;20210;-78
2021/03/19 16:41:26;;;;;;;1.13;1.13;;;3.50;99.90;;;;;;4923232;29;20230;-79
2021/03/19 16:43:53;;;;;;;1.30;1.30;;;3.50;99.90;;;;;;4927997;29;20210;-79
2021/03/19 16:46:20;;;;;;;1.20;1.20;;;3.60;99.90;;;;;;4930510;29;20211;-79
2021/03/19 16:48:48;;;;;;;1.20;1.20;;;3.70;99.90;;;;;;4922656;29;20244;-79
2021/03/19 16:51:23;;;;;;;1.10;1.10;;;3.70;99.90;;;;;;4921338;29;20233;-79
2021/03/19 16:53:51;;;;;;;1.20;1.20;;;3.60;99.90;;;;;;4919770;29;20206;-80
2021/03/19 16:56:18;;;;;;;1.20;1.20;;;3.70;99.90;;;;;;4921887;29;20236;-80
2021/03/19 16:58:46;;;;;;;1.10;1.10;;;3.70;99.90;;;;;;4921745;29;20279;-80
2021/03/19 17:01:16;;;;;;;1.27;1.27;;;3.60;99.90;;;;;;4921319;29;20230;-79
2021/03/19 17:03:45;;;;;;;1.10;1.10;;;3.50;99.90;;;;;;4920490;29;20206;-77
2021/03/19 17:06:16;;;;;;;1.30;1.30;;;3.40;99.90;;;;;;4922258;29;20696;-80
2021/03/19 17:08:44;;;;;;;1.10;1.10;;;3.40;99.90;;;;;;4922941;29;20253;-80
2021/03/19 17:11:13;;;;;;;1.30;1.30;;;3.40;99.90;;;;;;4922298;29;20234;-82
2021/03/19 17:13:40;;;;;;;1.20;1.20;;;5.40;99.90;;;;;;4920834;29;20239;-80
2021/03/19 17:16:09;;;;;;;1.10;1.10;;;3.30;99.90;;;;;;4920191;29;20206;-82
2021/03/19 17:18:37;;;;;;;1.30;1.30;;;3.30;99.90;;;;;;4919528;29;20218;-77
2021/03/19 17:21:06;;;;;;;1.33;1.33;;;3.30;99.90;;;;;;4917955;29;20238;-80
2021/03/19 17:23:34;;;;;;;1.20;1.20;;;2.10;99.90;;;;;;4932769;29;20206;-81
2021/03/19 17:26:02;;;;;;;1.30;1.30;;;5.00;99.90;;;;;;4939052;29;20206;-79
2021/03/19 17:28:33;;;;;;;1.30;1.30;;;3.10;99.90;;;;;;4951169;28;20198;-80
2021/03/19 17:31:05;;;;;;;1.20;1.20;;;3.30;99.90;;;;;;4958195;28;20236;-80
2021/03/19 17:33:47;;;;;;;1.20;1.20;;;3.20;99.90;;;;;;4959175;28;20209;-81
2021/03/19 17:36:16;;;;;;;1.23;1.23;;;3.20;99.90;;;;;;4959182;28;20209;-82
2021/03/19 17:38:43;;;;;;;1.30;1.30;;;3.20;99.90;;;;;;4959488;28;20209;-82
2021/03/19 17:41:11;;;;;;;1.10;1.10;;;3.10;99.90;;;;;;4958830;28;20614;-80
2021/03/19 17:43:38;;;;;;;1.20;1.20;;;2.80;99.90;;;;;;4959586;28;20284;-82
2021/03/19 17:46:09;;;;;;;1.30;1.30;;;2.80;99.90;;;;;;4959091;28;20456;-81
2021/03/19 17:48:37;;;;;;;1.23;1.23;;;3.20;99.90;;;;;;4959808;28;20197;-82
2021/03/19 17:51:09;;;;;;;1.30;1.30;;;2.70;99.90;;;;;;4958910;28;20229;-80
2021/03/19 17:53:40;;;;;;;1.10;1.10;;;2.70;99.90;;;;;;4959533;28;20209;-81
2021/03/19 17:56:10;;;;;;;1.30;1.30;;;2.60;99.90;;;;;;4958355;28;20671;-81
2021/03/19 17:58:38;;;;;;;1.40;1.40;;;2.60;99.90;;;;;;4957562;28;20674;-79
2021/03/19 18:01:10;;;;;;;1.20;1.20;;;2.50;99.90;;;;;;4957530;28;20225;-80
2021/03/19 18:03:38;;;;;;;1.20;1.20;;;2.50;99.90;;;;;;4958214;28;20675;-80
2021/03/19 18:06:07;;;;;;;1.30;1.30;;;2.40;99.90;;;;;;4955084;28;20205;-81
2021/03/19 18:08:35;;;;;;;1.20;1.20;;;;;;;;;;4955360;28;20296;-81
2021/03/19 18:11:03;;;;;;;1.43;1.43;;;2.10;99.90;;;;;;4957062;28;20599;-80
2021/03/19 18:13:32;;;;;;;1.20;1.20;;;2.20;99.90;;;;;;4956588;28;20241;-81
2021/03/19 18:15:59;;;;;;;1.20;1.20;;;2.30;99.90;;;;;;4956472;28;20214;-81
2021/03/19 18:18:27;;;;;;;1.10;1.10;;;;;;;;;;4956500;28;20218;-81
2021/03/19 18:20:55;;;;;;;1.30;1.30;;;;;;;;;;4956272;28;20226;-78
2021/03/19 18:23:28;;;;;;;1.20;1.20;;;2.20;99.90;;;;;;4956209;28;20212;-78
2021/03/19 18:26:03;;;;;;;1.30;1.30;;;2.10;99.90;;;;;;4955183;28;20309;-79
2021/03/19 18:28:35;;;;;;;1.50;1.50;;;2.20;99.90;;;;;;4956095;28;20205;-78
2021/03/19 18:31:03;;;;;;;1.23;1.23;;;2.60;99.90;;;;;;4956413;28;20633;-78
2021/03/19 18:33:30;;;;;;;1.30;1.30;;;;;;;;;;4956290;29;20565;-78
2021/03/19 18:36:00;;;;;;;1.40;1.40;;;2.10;99.90;;;;;;4955711;28;20205;-78
2021/03/19 18:38:28;;;;;;;1.47;1.47;;;2.30;99.90;;;;;;4955332;28;20210;-78
2021/03/19 18:40:55;;;;;;;1.20;1.20;;;2.20;99.90;;;;;;4955663;28;20316;-78